createdAt,value
2023-01-30T00:00:11.862Z,2.90
2023-01-30T00:02:39.178Z,2.90
2023-01-30T00:05:06.676Z,2.90
2023-01-30T00:07:33.634Z,2.90
2023-01-30T00:10:00.577Z,2.90
2023-01-30T00:12:27.565Z,2.90
2023-01-30T00:14:58.256Z,2.90
2023-01-30T00:17:25.319Z,3.00
2023-01-30T00:19:52.332Z,3.00
2023-01-30T00:22:19.264Z,3.00
2023-01-30T00:24:46.560Z,3.00
2023-01-30T00:27:13.517Z,3.00
2023-01-30T00:29:40.505Z,3.00
2023-01-30T00:32:07.626Z,3.00
2023-01-30T00:34:34.777Z,3.10
2023-01-30T00:39:49.711Z,3.10
2023-01-30T00:42:35.337Z,3.10
2023-01-30T00:45:20.939Z,3.10
2023-01-30T00:47:50.462Z,3.20
2023-01-30T00:50:18.616Z,3.20
2023-01-30T00:52:45.578Z,3.20
2023-01-30T00:55:12.601Z,3.20
2023-01-30T00:57:39.722Z,3.20
2023-01-30T01:00:09.169Z,3.20
2023-01-30T01:02:36.188Z,3.20
2023-01-30T01:05:03.609Z,3.20
2023-01-30T01:07:31.146Z,3.20
2023-01-30T01:09:59.221Z,3.20
2023-01-30T01:12:26.369Z,3.20
2023-01-30T01:14:53.461Z,3.10
2023-01-30T01:17:22.004Z,3.10
2023-01-30T01:19:49.040Z,3.10
2023-01-30T01:22:16.128Z,3.10
2023-01-30T01:24:43.161Z,3.10
2023-01-30T01:27:10.283Z,3.10
2023-01-30T01:29:39.431Z,3.10
2023-01-30T01:32:06.436Z,3.10
2023-01-30T01:34:33.524Z,3.10
2023-01-30T01:37:00.575Z,3.10
2023-01-30T01:39:47.592Z,3.10
2023-01-30T01:42:14.672Z,3.10
2023-01-30T01:45:19.719Z,3.10
2023-01-30T01:48:02.305Z,3.20
2023-01-30T01:50:49.648Z,3.20
2023-01-30T01:53:19.478Z,3.20
2023-01-30T01:55:51.344Z,3.20
2023-01-30T01:58:28.467Z,3.20
2023-01-30T02:00:58.223Z,3.20
2023-01-30T02:03:28.639Z,3.30
2023-01-30T02:05:59.026Z,3.20
2023-01-30T02:08:48.550Z,3.20
2023-01-30T02:11:47.556Z,3.20
2023-01-30T02:14:16.054Z,3.20
2023-01-30T02:16:45.340Z,3.30
2023-01-30T02:19:44.676Z,3.30
2023-01-30T02:23:03.068Z,3.30
2023-01-30T02:26:07.244Z,3.30
2023-01-30T02:29:07.743Z,3.30
2023-01-30T02:31:37.739Z,3.30
2023-01-30T02:34:35.924Z,3.30
2023-01-30T02:37:24.925Z,3.30
2023-01-30T02:40:15.175Z,3.30
2023-01-30T02:43:00.572Z,3.40
2023-01-30T02:45:55.103Z,3.40
2023-01-30T02:48:42.050Z,3.40
2023-01-30T02:51:31.881Z,3.40
2023-01-30T02:54:00.343Z,3.40
2023-01-30T02:56:27.806Z,3.40
2023-01-30T02:59:07.070Z,3.40
2023-01-30T03:01:41.105Z,3.40
2023-01-30T03:04:09.289Z,3.40
2023-01-30T03:06:57.599Z,3.30
2023-01-30T03:09:39.680Z,3.30
2023-01-30T03:12:27.353Z,3.30
2023-01-30T03:15:02.238Z,3.30
2023-01-30T03:17:31.897Z,3.40
2023-01-30T03:20:00.259Z,3.40
2023-01-30T03:22:27.373Z,3.40
2023-01-30T03:24:56.112Z,3.40
2023-01-30T03:27:23.827Z,3.50
2023-01-30T03:29:50.987Z,3.50
2023-01-30T03:32:17.984Z,3.50
2023-01-30T03:34:44.993Z,3.50
2023-01-30T03:37:12.170Z,3.50
2023-01-30T03:39:39.364Z,3.60
2023-01-30T03:42:08.103Z,3.60
2023-01-30T03:44:35.162Z,3.70
2023-01-30T03:47:02.275Z,3.70
2023-01-30T03:49:29.307Z,3.70
2023-01-30T03:51:57.299Z,3.70
2023-01-30T03:54:24.372Z,3.80
2023-01-30T03:56:51.532Z,3.80
2023-01-30T03:59:18.707Z,3.80
2023-01-30T04:01:52.538Z,3.90
2023-01-30T04:04:19.743Z,3.90
2023-01-30T04:06:46.883Z,3.90
2023-01-30T04:09:13.979Z,3.90
2023-01-30T04:11:45.133Z,4.00
2023-01-30T04:14:12.429Z,4.00
2023-01-30T04:16:59.794Z,4.00
2023-01-30T04:20:01.656Z,4.00
2023-01-30T04:22:30.876Z,4.00
2023-01-30T04:24:58.394Z,4.10
2023-01-30T04:27:25.625Z,4.10
2023-01-30T04:30:12.770Z,4.10
2023-01-30T04:32:40.771Z,4.10
2023-01-30T04:35:09.923Z,4.20
2023-01-30T04:37:37.049Z,4.20
2023-01-30T04:40:05.010Z,4.20
2023-01-30T04:42:32.187Z,4.20
2023-01-30T04:45:17.953Z,4.20
2023-01-30T04:47:45.559Z,4.30
2023-01-30T04:50:12.522Z,4.30
2023-01-30T04:52:39.976Z,4.30
2023-01-30T04:55:08.816Z,4.30
2023-01-30T04:57:35.958Z,4.30
2023-01-30T05:00:03.992Z,4.30
2023-01-30T05:02:32.031Z,4.40
2023-01-30T05:04:59.081Z,4.40
2023-01-30T05:07:25.954Z,4.30
2023-01-30T05:09:53.053Z,4.30
2023-01-30T05:12:19.937Z,4.30
2023-01-30T05:14:47.038Z,4.30
2023-01-30T05:17:14.011Z,4.30
2023-01-30T05:19:41.065Z,4.30
2023-01-30T05:22:07.975Z,4.30
2023-01-30T05:24:34.911Z,4.20
2023-01-30T05:27:01.883Z,4.20
2023-01-30T05:29:28.868Z,4.20
2023-01-30T05:31:55.893Z,4.20
2023-01-30T05:34:23.117Z,4.20
2023-01-30T05:36:50.049Z,4.20
2023-01-30T05:39:17.117Z,4.20
2023-01-30T05:41:44.154Z,4.20
2023-01-30T05:44:11.823Z,4.30
2023-01-30T05:46:39.817Z,4.30
2023-01-30T05:49:07.598Z,4.30
2023-01-30T05:51:34.595Z,4.30
2023-01-30T05:54:01.642Z,4.30
2023-01-30T05:56:28.609Z,4.40
2023-01-30T05:58:56.719Z,4.40
2023-01-30T06:01:23.966Z,4.40
2023-01-30T06:03:51.167Z,4.40
2023-01-30T06:06:18.695Z,4.40
2023-01-30T06:08:45.909Z,4.40
2023-01-30T06:11:17.392Z,4.40
2023-01-30T06:13:44.864Z,4.40
2023-01-30T06:16:13.810Z,4.50
2023-01-30T06:18:41.035Z,4.50
2023-01-30T06:21:08.642Z,4.50
2023-01-30T06:23:36.021Z,4.50
2023-01-30T06:26:04.980Z,4.60
2023-01-30T06:28:33.074Z,4.60
2023-01-30T06:31:00.156Z,4.60
2023-01-30T06:33:27.397Z,4.60
2023-01-30T06:35:54.386Z,4.60
2023-01-30T06:38:21.531Z,4.60
2023-01-30T06:40:50.370Z,4.60
2023-01-30T06:43:17.936Z,4.50
2023-01-30T06:45:45.143Z,4.50
2023-01-30T06:48:12.194Z,4.50
2023-01-30T06:50:39.305Z,4.50
2023-01-30T06:53:08.537Z,4.50
2023-01-30T06:55:36.458Z,4.40
2023-01-30T06:58:12.536Z,4.40
2023-01-30T07:00:41.203Z,4.30
2023-01-30T07:03:13.785Z,4.30
2023-01-30T07:05:41.822Z,4.30
2023-01-30T07:08:09.657Z,4.20
2023-01-30T07:10:36.960Z,4.20
2023-01-30T07:13:07.155Z,4.20
2023-01-30T07:15:34.430Z,4.20
2023-01-30T07:18:01.965Z,4.20
2023-01-30T07:20:31.308Z,4.10
2023-01-30T07:22:58.615Z,4.20
2023-01-30T07:25:27.197Z,4.20
2023-01-30T07:27:56.978Z,4.20
2023-01-30T07:30:24.487Z,4.20
2023-01-30T07:32:52.887Z,4.20
2023-01-30T07:35:20.520Z,4.20
2023-01-30T07:37:48.872Z,4.20
2023-01-30T07:40:16.956Z,4.20
2023-01-30T07:42:44.412Z,4.20
2023-01-30T07:45:12.214Z,4.30
2023-01-30T07:47:39.197Z,4.30
2023-01-30T07:50:06.893Z,4.30
2023-01-30T07:52:33.943Z,4.40
2023-01-30T07:55:01.674Z,4.40
2023-01-30T07:57:29.740Z,4.40
2023-01-30T07:59:56.725Z,4.40
2023-01-30T08:02:23.874Z,4.40
2023-01-30T08:04:50.845Z,4.50
2023-01-30T08:07:17.907Z,4.40
2023-01-30T08:09:45.153Z,4.50
2023-01-30T08:12:12.420Z,4.50
2023-01-30T08:14:39.395Z,4.50
2023-01-30T08:17:06.510Z,4.50
2023-01-30T08:19:33.443Z,4.50
2023-01-30T08:22:00.600Z,4.50
2023-01-30T08:24:27.553Z,4.50
2023-01-30T08:26:54.585Z,4.60
2023-01-30T08:29:21.857Z,4.60
2023-01-30T08:31:49.056Z,4.60
2023-01-30T08:34:16.100Z,4.60
2023-01-30T08:36:46.649Z,4.60
2023-01-30T08:39:14.278Z,4.60
2023-01-30T08:41:43.271Z,4.50
2023-01-30T08:44:10.997Z,4.60
2023-01-30T08:46:39.101Z,4.60
2023-01-30T08:49:06.850Z,4.60
2023-01-30T08:51:34.013Z,4.60
2023-01-30T08:54:01.151Z,4.60
2023-01-30T08:56:28.253Z,4.60
2023-01-30T08:58:55.347Z,4.70
2023-01-30T09:01:22.527Z,4.70
2023-01-30T09:03:49.704Z,4.80
2023-01-30T09:06:16.926Z,4.80
2023-01-30T09:08:43.975Z,4.80
2023-01-30T09:11:12.034Z,4.80
2023-01-30T09:13:43.546Z,4.90
2023-01-30T09:16:13.713Z,4.90
2023-01-30T09:18:42.543Z,5.00
2023-01-30T09:21:11.236Z,5.10
2023-01-30T09:23:38.659Z,5.10
2023-01-30T09:26:06.807Z,5.30
2023-01-30T09:28:34.491Z,5.40
2023-01-30T09:31:02.362Z,5.60
2023-01-30T09:33:30.086Z,5.80
2023-01-30T09:35:57.201Z,5.90
2023-01-30T09:38:24.288Z,6.00
2023-01-30T09:41:15.799Z,6.00
2023-01-30T09:43:51.948Z,6.00
2023-01-30T09:46:29.554Z,6.00
2023-01-30T09:49:16.357Z,6.00
2023-01-30T09:51:58.735Z,6.10
2023-01-30T09:54:36.880Z,6.10
2023-01-30T09:57:21.732Z,6.10
2023-01-30T09:59:53.982Z,6.10
2023-01-30T10:02:24.986Z,6.10
2023-01-30T10:05:01.360Z,6.10
2023-01-30T10:07:55.244Z,6.10
2023-01-30T10:10:31.366Z,6.10
2023-01-30T10:13:35.871Z,6.20
2023-01-30T10:16:12.052Z,6.30
2023-01-30T10:18:58.271Z,6.40
2023-01-30T10:21:50.286Z,6.50
2023-01-30T10:24:29.249Z,6.50
2023-01-30T10:26:57.020Z,6.50
2023-01-30T10:29:30.483Z,6.50
2023-01-30T10:32:04.711Z,6.50
2023-01-30T10:34:35.509Z,6.50
2023-01-30T10:37:07.854Z,6.50
2023-01-30T10:39:49.708Z,6.50
2023-01-30T10:42:28.588Z,6.60
2023-01-30T10:45:03.100Z,6.60
2023-01-30T10:47:54.408Z,6.60
2023-01-30T10:50:48.269Z,6.60
2023-01-30T10:53:26.637Z,6.60
2023-01-30T10:56:05.121Z,6.60
2023-01-30T10:59:19.648Z,6.60
2023-01-30T11:01:55.891Z,6.60
2023-01-30T11:04:31.414Z,6.60
2023-01-30T11:07:03.422Z,6.70
2023-01-30T11:09:47.250Z,6.80
2023-01-30T11:12:15.334Z,6.80
2023-01-30T11:15:04.265Z,6.90
2023-01-30T11:17:35.053Z,6.90
2023-01-30T11:20:24.278Z,6.90
2023-01-30T11:23:09.338Z,7.00
2023-01-30T11:25:52.851Z,7.00
2023-01-30T11:28:26.906Z,7.00
2023-01-30T11:31:00.204Z,7.00
2023-01-30T11:33:38.135Z,6.90
2023-01-30T11:36:08.467Z,6.90
2023-01-30T11:38:40.296Z,6.90
2023-01-30T11:41:11.159Z,6.90
2023-01-30T11:43:42.219Z,6.90
2023-01-30T11:46:13.493Z,6.90
2023-01-30T11:49:02.477Z,6.90
2023-01-30T11:51:45.409Z,6.90
2023-01-30T11:54:19.930Z,6.80
2023-01-30T11:56:58.263Z,6.80
2023-01-30T11:59:32.202Z,6.80
2023-01-30T12:02:04.473Z,6.80
2023-01-30T12:04:31.726Z,6.80
2023-01-30T12:07:08.905Z,6.80
2023-01-30T12:09:40.728Z,6.80
2023-01-30T12:12:35.289Z,6.80
2023-01-30T12:15:11.790Z,6.80
2023-01-30T12:17:52.655Z,6.90
2023-01-30T12:20:19.982Z,6.90
2023-01-30T12:23:16.998Z,6.90
2023-01-30T12:26:11.764Z,6.90
2023-01-30T12:29:05.531Z,7.00
2023-01-30T12:31:43.268Z,7.10
2023-01-30T12:34:10.950Z,7.20
2023-01-30T12:37:32.438Z,7.20
2023-01-30T12:40:10.027Z,7.30
2023-01-30T12:42:55.242Z,7.40
2023-01-30T12:45:31.681Z,7.40
2023-01-30T12:48:23.460Z,7.50
2023-01-30T12:51:02.116Z,7.60
2023-01-30T12:53:40.090Z,7.60
2023-01-30T12:56:09.787Z,7.60
2023-01-30T12:58:42.516Z,7.70
2023-01-30T13:01:25.126Z,7.70
2023-01-30T13:03:58.526Z,7.60
2023-01-30T13:06:38.241Z,7.60
2023-01-30T13:09:24.223Z,7.50
2023-01-30T13:12:00.432Z,7.40
2023-01-30T13:14:38.928Z,7.50
2023-01-30T13:17:44.765Z,7.40
2023-01-30T13:20:28.836Z,7.40
2023-01-30T13:23:13.148Z,7.50
2023-01-30T13:25:52.532Z,7.50
2023-01-30T13:28:26.047Z,7.50
2023-01-30T13:30:55.586Z,7.50
2023-01-30T13:33:26.553Z,7.60
2023-01-30T13:36:02.634Z,7.60
2023-01-30T13:38:32.072Z,7.60
2023-01-30T13:41:02.304Z,7.70
2023-01-30T13:43:36.652Z,7.70
2023-01-30T13:46:09.546Z,7.70
2023-01-30T13:48:51.944Z,7.60
2023-01-30T13:51:40.435Z,7.70
2023-01-30T13:54:26.136Z,7.70
2023-01-30T13:56:53.150Z,7.70
2023-01-30T13:59:29.103Z,7.70
2023-01-30T14:01:59.229Z,7.70
2023-01-30T14:04:41.354Z,7.70
2023-01-30T14:07:09.837Z,7.70
2023-01-30T14:09:37.421Z,7.60
2023-01-30T14:12:06.933Z,7.60
2023-01-30T14:14:40.911Z,7.60
2023-01-30T14:17:15.393Z,7.70
2023-01-30T14:20:17.216Z,7.70
2023-01-30T14:22:55.517Z,7.60
2023-01-30T14:25:25.522Z,7.60
2023-01-30T14:28:15.596Z,7.50
2023-01-30T14:30:50.543Z,7.50
2023-01-30T14:33:23.753Z,7.50
2023-01-30T14:36:02.744Z,7.50
2023-01-30T14:38:34.350Z,7.50
2023-01-30T14:41:01.413Z,7.50
2023-01-30T14:43:43.713Z,7.50
2023-01-30T14:46:20.067Z,7.50
2023-01-30T14:49:00.948Z,7.50
2023-01-30T14:51:40.520Z,7.50
2023-01-30T14:54:14.037Z,7.50
2023-01-30T14:56:50.649Z,7.50
2023-01-30T14:59:17.622Z,7.50
2023-01-30T15:01:55.412Z,7.50
2023-01-30T15:04:26.213Z,7.50
2023-01-30T15:06:54.746Z,7.40
2023-01-30T15:09:25.425Z,7.40
2023-01-30T15:12:21.063Z,7.40
2023-01-30T15:15:39.792Z,7.30
2023-01-30T15:18:28.336Z,7.30
2023-01-30T15:21:00.978Z,7.20
2023-01-30T15:23:46.822Z,7.10
2023-01-30T15:26:44.389Z,7.10
2023-01-30T15:29:53.036Z,7.00
2023-01-30T15:32:24.221Z,7.00
2023-01-30T15:34:57.775Z,7.00
2023-01-30T15:37:32.537Z,6.90
2023-01-30T15:40:15.002Z,6.90
2023-01-30T15:42:53.539Z,6.90
2023-01-30T15:45:30.307Z,7.00
2023-01-30T15:48:19.173Z,7.00
2023-01-30T15:50:55.066Z,7.00
2023-01-30T15:53:31.166Z,7.00
2023-01-30T15:56:00.632Z,7.00
2023-01-30T15:58:29.047Z,7.00
2023-01-30T16:00:59.807Z,7.10
2023-01-30T16:03:31.563Z,7.10
2023-01-30T16:05:59.276Z,7.10
2023-01-30T16:08:32.094Z,7.10
2023-01-30T16:11:00.909Z,7.10
2023-01-30T16:13:29.985Z,7.00
2023-01-30T16:16:08.228Z,7.00
2023-01-30T16:18:38.388Z,7.00
2023-01-30T16:21:08.695Z,7.00
2023-01-30T16:23:38.780Z,7.00
2023-01-30T16:26:14.353Z,7.00
2023-01-30T16:28:41.375Z,7.00
2023-01-30T16:31:11.182Z,7.00
2023-01-30T16:33:38.903Z,6.90
2023-01-30T16:36:27.886Z,6.90
2023-01-30T16:38:55.986Z,6.90
2023-01-30T16:41:39.498Z,6.90
2023-01-30T16:44:20.214Z,6.90
2023-01-30T16:46:50.315Z,6.90
2023-01-30T16:49:22.984Z,6.90
2023-01-30T16:51:51.172Z,6.90
2023-01-30T16:54:25.296Z,6.90
2023-01-30T16:56:55.964Z,6.90
2023-01-30T16:59:34.725Z,6.90
2023-01-30T17:02:05.572Z,6.90
2023-01-30T17:04:35.812Z,6.90
2023-01-30T17:07:04.802Z,6.90
2023-01-30T17:09:36.812Z,6.90
2023-01-30T17:12:43.227Z,6.90
2023-01-30T17:15:11.875Z,6.90
2023-01-30T17:17:39.938Z,6.90
2023-01-30T17:20:11.068Z,6.90
2023-01-30T17:22:41.529Z,6.90
2023-01-30T17:25:31.175Z,6.90
2023-01-30T17:27:59.580Z,6.90
2023-01-30T17:30:26.685Z,6.90
2023-01-30T17:32:53.676Z,6.90
2023-01-30T17:35:21.159Z,6.90
2023-01-30T17:37:59.682Z,6.80
2023-01-30T17:40:40.359Z,6.80
2023-01-30T17:43:08.586Z,6.80
2023-01-30T17:45:39.874Z,6.80
2023-01-30T17:48:07.624Z,6.80
2023-01-30T17:50:36.598Z,6.80
2023-01-30T17:53:04.212Z,6.80
2023-01-30T17:55:32.870Z,6.80
2023-01-30T17:58:00.735Z,6.80
2023-01-30T18:00:28.860Z,6.80
2023-01-30T18:02:56.041Z,6.80
2023-01-30T18:05:23.557Z,6.80
2023-01-30T18:07:50.675Z,6.80
2023-01-30T18:10:20.727Z,6.80
2023-01-30T18:12:47.847Z,6.80
2023-01-30T18:15:16.085Z,6.80
2023-01-30T18:17:47.337Z,6.80
2023-01-30T18:20:17.672Z,6.80
2023-01-30T18:22:45.452Z,6.90
2023-01-30T18:25:13.778Z,6.90
2023-01-30T18:27:44.085Z,6.90
2023-01-30T18:30:17.475Z,6.90
2023-01-30T18:32:52.858Z,6.90
2023-01-30T18:35:22.239Z,7.00
2023-01-30T18:37:50.025Z,7.00
2023-01-30T18:40:18.504Z,7.00
2023-01-30T18:42:47.229Z,7.00
2023-01-30T18:45:14.555Z,7.10
2023-01-30T18:47:41.555Z,7.10
2023-01-30T18:50:09.255Z,7.10
2023-01-30T18:52:36.751Z,7.20
2023-01-30T18:55:04.223Z,7.20
2023-01-30T18:57:31.587Z,7.20
2023-01-30T18:59:58.625Z,7.20
2023-01-30T19:02:25.664Z,7.20
2023-01-30T19:04:52.761Z,7.30
2023-01-30T19:07:19.753Z,7.30
2023-01-30T19:09:47.469Z,7.30
2023-01-30T19:12:32.994Z,7.30
2023-01-30T19:15:01.440Z,7.30
2023-01-30T19:17:29.508Z,7.30
2023-01-30T19:19:57.492Z,7.30
2023-01-30T19:22:24.887Z,7.30
2023-01-30T19:24:51.912Z,7.30
2023-01-30T19:27:19.022Z,7.40
2023-01-30T19:29:46.115Z,7.30
2023-01-30T19:32:13.595Z,7.40
2023-01-30T19:34:40.891Z,7.40
2023-01-30T19:37:07.925Z,7.40
2023-01-30T19:39:34.947Z,7.40
2023-01-30T19:42:01.976Z,7.40
2023-01-30T19:44:28.986Z,7.40
2023-01-30T19:46:57.053Z,7.40
2023-01-30T19:49:23.944Z,7.40
2023-01-30T19:51:51.175Z,7.50
2023-01-30T19:54:18.907Z,7.40
2023-01-30T19:56:48.466Z,7.40
2023-01-30T19:59:16.734Z,7.40
2023-01-30T20:01:44.025Z,7.50
2023-01-30T20:04:11.314Z,7.50
2023-01-30T20:06:42.974Z,7.50
2023-01-30T20:09:13.231Z,7.50
2023-01-30T20:11:42.205Z,7.50
2023-01-30T20:14:10.857Z,7.50
2023-01-30T20:16:38.367Z,7.50
2023-01-30T20:19:14.127Z,7.50
2023-01-30T20:21:41.830Z,7.50
2023-01-30T20:24:14.148Z,7.50
2023-01-30T20:26:41.766Z,7.50
2023-01-30T20:29:10.153Z,7.50
2023-01-30T20:31:40.511Z,7.50
2023-01-30T20:34:12.439Z,7.50
2023-01-30T20:36:39.478Z,7.50
2023-01-30T20:39:08.024Z,7.50
2023-01-30T20:41:37.588Z,7.50
2023-01-30T20:44:07.284Z,7.50
2023-01-30T20:46:43.109Z,7.50
2023-01-30T20:49:15.220Z,7.40
2023-01-30T20:51:42.741Z,7.50
2023-01-30T20:54:11.666Z,7.40
2023-01-30T20:56:50.392Z,7.40
2023-01-30T20:59:20.866Z,7.30
2023-01-30T21:01:47.849Z,7.30
2023-01-30T21:04:16.372Z,7.30
2023-01-30T21:06:46.161Z,7.30
2023-01-30T21:09:19.656Z,7.20
2023-01-30T21:11:47.264Z,7.20
2023-01-30T21:14:16.268Z,7.20
2023-01-30T21:16:43.552Z,7.20
2023-01-30T21:19:15.203Z,7.20
2023-01-30T21:21:54.546Z,7.10
2023-01-30T21:24:25.572Z,7.10
2023-01-30T21:26:53.605Z,7.10
2023-01-30T21:29:24.852Z,7.00
2023-01-30T21:31:52.312Z,7.00
2023-01-30T21:34:19.461Z,7.00
2023-01-30T21:37:09.230Z,7.00
2023-01-30T21:39:55.206Z,6.90
2023-01-30T21:42:40.886Z,7.00
2023-01-30T21:45:08.481Z,7.00
2023-01-30T21:47:37.023Z,7.00
2023-01-30T21:50:04.765Z,7.00
2023-01-30T21:52:33.491Z,7.00
2023-01-30T21:55:00.920Z,7.10
2023-01-30T21:57:27.967Z,7.10
2023-01-30T21:59:55.552Z,7.10
2023-01-30T22:02:22.695Z,7.10
2023-01-30T22:04:49.898Z,7.10
2023-01-30T22:07:17.081Z,7.10
2023-01-30T22:09:44.430Z,7.10
2023-01-30T22:12:11.416Z,7.00
2023-01-30T22:14:38.812Z,7.00
2023-01-30T22:17:06.304Z,7.00
2023-01-30T22:19:35.417Z,6.90
2023-01-30T22:22:03.452Z,6.90
2023-01-30T22:24:30.637Z,6.90
2023-01-30T22:26:57.669Z,6.80
2023-01-30T22:29:24.817Z,6.80
2023-01-30T22:31:51.901Z,6.80
2023-01-30T22:34:19.246Z,6.80
2023-01-30T22:36:47.911Z,6.70
2023-01-30T22:39:14.880Z,6.70
2023-01-30T22:41:42.117Z,6.70
2023-01-30T22:44:10.457Z,6.70
2023-01-30T22:46:39.717Z,6.70
2023-01-30T22:49:08.372Z,6.70
2023-01-30T22:51:38.524Z,6.70
2023-01-30T22:54:11.875Z,6.70
2023-01-30T22:56:44.645Z,6.60
2023-01-30T22:59:12.204Z,6.60
2023-01-30T23:01:47.996Z,6.60
2023-01-30T23:04:16.264Z,6.60
2023-01-30T23:06:44.246Z,6.60
2023-01-30T23:09:15.305Z,6.60
2023-01-30T23:12:14.172Z,6.60
2023-01-30T23:14:42.938Z,6.50
2023-01-30T23:17:29.043Z,6.50
2023-01-30T23:19:56.283Z,6.50
2023-01-30T23:22:23.348Z,6.50
2023-01-30T23:24:51.425Z,6.50
2023-01-30T23:27:19.152Z,6.50
2023-01-30T23:29:46.362Z,6.50
2023-01-30T23:32:13.409Z,6.40
2023-01-30T23:34:40.403Z,6.40
2023-01-30T23:37:07.870Z,6.40
2023-01-30T23:39:35.425Z,6.40
2023-01-30T23:42:02.953Z,6.40
2023-01-30T23:44:29.983Z,6.40
2023-01-30T23:46:56.994Z,6.30
2023-01-30T23:49:24.081Z,6.40
2023-01-30T23:51:50.950Z,6.40
2023-01-30T23:54:18.164Z,6.30
2023-01-30T23:56:45.238Z,6.30
2023-01-30T23:59:12.863Z,6.30
